createdAt,value
2024-01-15T04:08:58.228Z,988.42
2024-01-15T04:09:59.280Z,988.40
2024-01-15T04:10:59.239Z,988.34
2024-01-15T05:01:18.340Z,988.00
2024-01-15T05:02:19.201Z,987.95
2024-01-15T05:03:19.285Z,987.97
2024-01-15T05:04:19.129Z,987.93
2024-01-15T05:05:19.149Z,987.99
2024-01-15T05:06:19.112Z,987.94
2024-01-15T05:33:36.638Z,987.91
2024-01-15T05:34:37.584Z,987.92
2024-01-15T06:33:43.667Z,987.89
2024-01-15T06:34:44.425Z,987.87
2024-01-15T06:35:44.287Z,987.89
2024-01-15T06:36:44.353Z,987.90
2024-01-15T06:37:44.257Z,987.89
2024-01-15T06:38:44.279Z,987.92
2024-01-15T06:39:44.312Z,987.89
2024-01-15T06:40:44.234Z,987.90
2024-01-15T06:41:44.213Z,987.96
2024-01-15T06:42:44.261Z,987.95
2024-01-15T06:43:44.200Z,987.94
2024-01-15T06:44:44.221Z,987.93
2024-01-15T06:45:44.245Z,987.89
2024-01-15T06:46:44.193Z,987.85
2024-01-15T06:47:44.253Z,987.87
2024-01-15T06:48:44.279Z,987.91
2024-01-15T06:49:44.160Z,987.88
2024-01-15T09:12:13.070Z,987.90
2024-01-15T09:13:13.912Z,987.93
2024-01-15T09:26:05.374Z,987.92
2024-01-15T09:49:05.525Z,987.89
2024-01-15T09:50:06.473Z,987.89
2024-01-15T09:51:06.255Z,987.87
2024-01-15T09:52:11.692Z,987.86
2024-01-15T09:53:06.382Z,987.83
2024-01-15T09:54:06.335Z,987.88
2024-01-15T09:55:06.460Z,987.89
2024-01-15T09:56:06.233Z,987.88
2024-01-15T09:57:06.267Z,987.87
2024-01-15T09:58:06.251Z,987.90
2024-01-15T17:50:43.644Z,990.91
2024-01-15T17:51:44.413Z,990.98
2024-01-15T17:52:44.506Z,991.01
2024-01-15T17:53:44.552Z,991.06
2024-01-15T17:54:44.370Z,991.07
2024-01-15T17:55:44.398Z,991.11
2024-01-15T17:56:44.377Z,991.12
2024-01-15T17:57:44.346Z,991.19
2024-01-15T17:58:44.324Z,991.12
2024-01-15T17:59:44.337Z,991.16
2024-01-15T18:00:44.323Z,991.20
2024-01-15T18:01:44.297Z,991.15
2024-01-15T18:02:44.315Z,991.16
2024-01-15T18:03:44.332Z,991.13
2024-01-15T18:04:44.306Z,991.12
2024-01-15T18:05:44.307Z,991.16
2024-01-15T18:06:44.230Z,991.17
2024-01-15T18:07:44.253Z,991.17
2024-01-15T18:08:44.262Z,991.23
2024-01-15T18:09:44.243Z,991.30
2024-01-15T18:10:44.198Z,991.21
2024-01-15T18:11:44.201Z,991.23
2024-01-15T18:12:45.137Z,991.14
2024-01-15T18:13:44.189Z,991.21
2024-01-15T18:14:44.182Z,991.17
2024-01-15T18:15:44.191Z,991.18
2024-01-15T18:16:44.134Z,991.26
2024-01-15T18:17:44.276Z,991.29
2024-01-15T18:18:44.173Z,991.28
2024-01-15T18:19:44.110Z,991.34
2024-01-15T18:20:44.174Z,991.35
2024-01-15T18:21:44.102Z,991.33
2024-01-15T18:22:44.365Z,991.39
2024-01-15T18:23:44.092Z,991.35
2024-01-15T18:24:44.053Z,991.39
2024-01-15T18:25:44.049Z,991.42
2024-01-15T18:26:44.052Z,991.39
2024-01-15T18:27:44.038Z,991.42
2024-01-15T18:28:44.026Z,991.43
2024-01-15T18:29:44.056Z,991.46
2024-01-15T18:30:44.006Z,991.45
2024-01-15T18:31:44.007Z,991.40
2024-01-15T18:32:44.117Z,991.47
2024-01-15T18:33:44.076Z,991.48
2024-01-15T18:34:44.201Z,991.51
2024-01-15T18:35:44.003Z,991.49
2024-01-15T18:36:43.945Z,991.48
2024-01-15T18:37:43.931Z,991.57
2024-01-15T18:38:44.007Z,991.58
2024-01-15T18:39:43.914Z,991.61
2024-01-15T18:40:43.897Z,991.62
2024-01-15T18:41:43.999Z,991.66
2024-01-15T18:42:43.882Z,991.67
2024-01-15T18:43:43.878Z,991.79
2024-01-15T18:44:43.961Z,991.80
2024-01-15T18:45:43.842Z,991.79
2024-01-15T18:46:43.837Z,991.83
2024-01-15T18:47:44.007Z,991.79
2024-01-15T18:48:43.870Z,991.77
2024-01-15T18:49:43.784Z,991.82
2024-01-15T18:50:43.842Z,991.84
2024-01-15T19:01:40.050Z,992.12
2024-01-15T19:12:17.974Z,992.31
2024-01-15T19:13:12.956Z,992.35
2024-01-15T19:14:12.995Z,992.33
2024-01-15T19:39:15.413Z,992.49
2024-01-15T19:40:16.372Z,992.54
2024-01-15T19:41:16.482Z,992.52
2024-01-15T19:42:16.243Z,992.51
2024-01-15T19:43:16.232Z,992.49
2024-01-15T19:44:16.276Z,992.44
2024-01-15T19:45:16.246Z,992.42
2024-01-15T19:46:16.273Z,992.40
2024-01-15T19:47:16.260Z,992.47
2024-01-15T19:55:58.181Z,992.67
2024-01-15T19:56:59.110Z,992.70
2024-01-15T20:03:42.890Z,992.81
2024-01-15T20:06:52.836Z,992.88
2024-01-15T20:07:53.800Z,992.88
2024-01-15T20:08:53.749Z,992.91
2024-01-15T20:09:53.713Z,992.92
2024-01-15T20:10:53.701Z,992.88
2024-01-15T20:11:53.695Z,992.97
2024-01-15T20:12:53.725Z,992.93
2024-01-15T20:13:53.758Z,992.93
2024-01-15T20:14:53.644Z,992.96
2024-01-15T20:15:53.677Z,992.96
2024-01-15T20:16:53.645Z,992.95
2024-01-15T20:17:53.811Z,992.98
2024-01-15T20:18:53.956Z,993.00
2024-01-15T20:19:53.751Z,993.07
2024-01-15T20:20:53.626Z,993.00
2024-01-15T20:21:53.580Z,992.99
2024-01-15T20:22:53.601Z,992.98
2024-01-15T20:23:58.696Z,993.03
2024-01-15T20:24:53.553Z,993.03
2024-01-15T20:25:53.553Z,993.05
2024-01-15T20:26:53.528Z,993.05
2024-01-15T20:27:53.552Z,993.05
2024-01-15T20:28:53.554Z,993.07
2024-01-15T20:29:53.511Z,993.06
2024-01-15T20:30:53.594Z,993.09
2024-01-15T20:31:54.432Z,993.11
2024-01-15T20:32:53.745Z,993.10
2024-01-15T20:33:54.039Z,993.10
2024-01-15T20:34:54.421Z,993.16
2024-01-15T20:35:54.038Z,993.20
2024-01-15T20:36:54.477Z,993.24
2024-01-15T20:37:53.957Z,993.20
2024-01-15T20:38:54.424Z,993.22
2024-01-15T20:39:53.413Z,993.19
2024-01-15T20:40:53.410Z,993.21
2024-01-15T20:41:53.413Z,993.26
2024-01-15T20:42:53.375Z,993.26
2024-01-15T20:43:53.426Z,993.29
2024-01-15T20:44:53.344Z,993.35
2024-01-15T20:45:53.352Z,993.34
2024-01-15T20:46:53.313Z,993.35
2024-01-15T20:47:53.506Z,993.34
2024-01-15T20:48:53.441Z,993.36
2024-01-15T20:49:53.309Z,993.39
2024-01-15T21:00:36.279Z,993.50
2024-01-15T21:01:36.984Z,993.51
2024-01-15T21:02:37.145Z,993.54
2024-01-15T21:03:37.107Z,993.55
2024-01-15T21:04:36.913Z,993.56
2024-01-15T21:05:37.054Z,993.56
2024-01-15T21:06:38.905Z,993.53
2024-01-15T21:07:36.868Z,993.61
2024-01-15T21:08:36.894Z,993.54
2024-01-15T21:09:36.875Z,993.53
2024-01-15T21:10:36.860Z,993.52
2024-01-15T21:11:36.901Z,993.56
2024-01-15T21:12:36.845Z,993.54
2024-01-15T21:13:36.812Z,993.47
2024-01-15T21:35:55.406Z,993.63
2024-01-15T21:36:56.321Z,993.62
2024-01-15T21:37:56.180Z,993.58
2024-01-15T21:38:56.035Z,993.59
2024-01-15T21:39:56.023Z,993.56
2024-01-15T21:40:56.049Z,993.58
2024-01-15T21:41:55.974Z,993.63
2024-01-15T21:42:56.002Z,993.61
2024-01-15T21:43:55.956Z,993.60
2024-01-15T21:44:55.999Z,993.59
2024-01-15T21:45:56.013Z,993.61
2024-01-15T21:46:55.954Z,993.64
2024-01-15T21:47:56.132Z,993.65
2024-01-15T21:48:56.091Z,993.67
2024-01-15T21:49:55.897Z,993.71
2024-01-15T21:50:56.009Z,993.72
2024-01-15T21:51:55.918Z,993.72
2024-01-15T21:52:55.869Z,993.74
2024-01-15T21:59:59.052Z,993.93
2024-01-15T22:01:00.007Z,993.93
2024-01-15T22:07:35.954Z,994.03
2024-01-15T22:08:38.636Z,994.02
2024-01-15T22:09:38.288Z,994.06
2024-01-15T22:10:36.690Z,994.10
2024-01-15T22:11:36.696Z,994.10
2024-01-15T22:12:36.690Z,994.10
2024-01-15T22:13:36.645Z,994.13
2024-01-15T22:14:36.967Z,994.13
2024-01-15T22:15:36.631Z,994.14
2024-01-15T22:16:36.626Z,994.16
2024-01-15T22:17:36.767Z,994.15
2024-01-15T22:18:36.768Z,994.19
2024-01-15T22:19:36.810Z,994.15
2024-01-15T22:20:36.648Z,994.18
2024-01-15T22:21:36.561Z,994.17
2024-01-15T22:22:36.548Z,994.17
2024-01-15T22:23:36.672Z,994.13
2024-01-15T22:24:36.583Z,994.18
2024-01-15T22:25:36.528Z,994.16
2024-01-15T22:26:36.567Z,994.13
2024-01-15T22:27:36.511Z,994.26
2024-01-15T22:28:36.499Z,994.27
2024-01-15T22:29:36.540Z,994.30
2024-01-15T22:30:36.479Z,994.32
2024-01-15T22:31:36.467Z,994.35
2024-01-15T22:32:36.622Z,994.37
2024-01-15T22:33:36.606Z,994.34
2024-01-15T22:34:36.493Z,994.36
2024-01-15T22:35:36.486Z,994.41
2024-01-15T22:36:36.442Z,994.41
2024-01-15T22:37:36.430Z,994.40
2024-01-15T22:38:36.423Z,994.45
2024-01-15T22:39:36.411Z,994.41
2024-01-15T22:40:36.375Z,994.45
2024-01-15T22:41:36.433Z,994.40
2024-01-15T22:42:36.362Z,994.47
2024-01-15T22:43:36.337Z,994.47
2024-01-15T22:44:36.451Z,994.43
2024-01-15T22:45:36.605Z,994.41
2024-01-15T22:46:36.322Z,994.38
2024-01-15T22:47:36.434Z,994.40
2024-01-15T22:48:36.394Z,994.42
2024-01-15T22:49:36.270Z,994.45
2024-01-15T22:50:36.371Z,994.45
2024-01-15T22:51:36.324Z,994.50
2024-01-15T22:52:36.237Z,994.50
2024-01-15T22:53:36.264Z,994.58
2024-01-15T22:54:36.251Z,994.52
2024-01-15T22:55:36.224Z,994.52
2024-01-15T22:56:36.275Z,994.54
2024-01-15T22:57:36.265Z,994.55
2024-01-15T22:58:36.183Z,994.61
2024-01-15T22:59:36.219Z,994.63
2024-01-15T23:00:36.183Z,994.64
2024-01-15T23:01:36.172Z,994.69
2024-01-15T23:02:36.282Z,994.74
2024-01-15T23:03:36.255Z,994.73
2024-01-15T23:04:36.130Z,994.74
2024-01-15T23:05:36.163Z,994.72
2024-01-15T23:06:36.158Z,994.74
2024-01-15T23:07:36.138Z,994.68
2024-01-15T23:08:36.098Z,994.73
2024-01-15T23:09:36.092Z,994.71
2024-01-15T23:10:36.072Z,994.71
2024-01-15T23:11:36.102Z,994.76
2024-01-15T23:12:36.039Z,994.77
2024-01-15T23:13:36.057Z,994.76
2024-01-15T23:14:36.107Z,994.81
2024-01-15T23:15:36.003Z,994.79
2024-01-15T23:16:36.010Z,994.80
2024-01-15T23:17:36.110Z,994.80
2024-01-15T23:18:36.094Z,994.81
2024-01-15T23:19:36.021Z,994.82
2024-01-15T23:20:35.980Z,994.76
2024-01-15T23:21:35.943Z,994.82
2024-01-15T23:22:35.974Z,994.84
2024-01-15T23:23:35.988Z,994.83
2024-01-15T23:24:35.920Z,994.85
2024-01-15T23:25:35.914Z,994.88
2024-01-15T23:26:35.935Z,994.88
2024-01-15T23:27:35.886Z,994.89
2024-01-15T23:28:35.885Z,994.96
2024-01-15T23:29:35.911Z,994.93
2024-01-15T23:30:35.863Z,994.92
2024-01-15T23:31:35.853Z,994.94
2024-01-15T23:32:35.865Z,994.98
2024-01-15T23:33:35.940Z,995.00
2024-01-15T23:34:35.855Z,994.97
2024-01-15T23:35:35.873Z,994.98
2024-01-15T23:36:35.797Z,995.01
2024-01-15T23:37:35.847Z,995.01
2024-01-15T23:38:35.810Z,995.04
2024-01-15T23:39:35.793Z,995.05
2024-01-15T23:40:35.765Z,995.04
2024-01-15T23:41:35.824Z,995.05
2024-01-15T23:42:35.725Z,995.05
2024-01-15T23:43:35.745Z,995.05
2024-01-15T23:44:35.746Z,995.00
2024-01-15T23:45:35.726Z,995.00
2024-01-15T23:46:35.699Z,995.01
2024-01-15T23:47:35.773Z,995.00
2024-01-15T23:48:35.758Z,995.03
2024-01-15T23:49:35.764Z,995.02
2024-01-15T23:50:35.739Z,995.02
2024-01-15T23:51:35.639Z,995.05
2024-01-15T23:52:35.655Z,995.03
2024-01-15T23:53:35.708Z,995.03
2024-01-15T23:54:35.602Z,994.98
2024-01-15T23:55:35.648Z,994.99
2024-01-15T23:56:35.629Z,995.02
2024-01-15T23:57:35.582Z,995.05
2024-01-15T23:58:35.584Z,995.05
2024-01-15T23:59:35.617Z,995.08
